sensor_id;sensor_type;location;lat;lon;timestamp;pressure;altitude;pressure_sealevel;temperature;humidity
50125;BME280;36023;48.670;6.184;2023-02-15T00:01:09;100279.75;;;14.74;39.26
50125;BME280;36023;48.670;6.184;2023-02-15T00:03:35;100273.69;;;14.74;39.31
50125;BME280;36023;48.670;6.184;2023-02-15T00:06:01;100275.44;;;14.73;39.26
50125;BME280;36023;48.670;6.184;2023-02-15T00:08:27;100278.03;;;14.73;39.12
50125;BME280;36023;48.670;6.184;2023-02-15T00:11:06;100280.69;;;14.72;39.17
50125;BME280;36023;48.670;6.184;2023-02-15T00:13:32;100276.34;;;14.71;38.93
50125;BME280;36023;48.670;6.184;2023-02-15T00:16:06;100278.97;;;14.71;39.22
50125;BME280;36023;48.670;6.184;2023-02-15T00:18:32;100272.84;;;14.70;39.01
50125;BME280;36023;48.670;6.184;2023-02-15T00:21:06;100272.00;;;14.70;39.00
50125;BME280;36023;48.670;6.184;2023-02-15T00:23:33;100270.28;;;14.69;39.08
50125;BME280;36023;48.670;6.184;2023-02-15T00:26:11;100268.56;;;14.68;38.95
50125;BME280;36023;48.670;6.184;2023-02-15T00:28:38;100267.66;;;14.69;38.86
50125;BME280;36023;48.670;6.184;2023-02-15T00:31:09;100266.84;;;14.67;38.95
50125;BME280;36023;48.670;6.184;2023-02-15T00:33:38;100257.31;;;14.66;38.82
50125;BME280;36023;48.670;6.184;2023-02-15T00:36:06;100255.59;;;14.65;38.88
50125;BME280;36023;48.670;6.184;2023-02-15T00:38:34;100259.94;;;14.64;38.74
50125;BME280;36023;48.670;6.184;2023-02-15T00:41:01;100264.31;;;14.64;38.88
50125;BME280;36023;48.670;6.184;2023-02-15T00:43:29;100264.31;;;14.64;38.79
50125;BME280;36023;48.670;6.184;2023-02-15T00:45:55;100257.34;;;14.63;38.81
50125;BME280;36023;48.670;6.184;2023-02-15T00:48:22;100259.94;;;14.63;38.79
50125;BME280;36023;48.670;6.184;2023-02-15T00:50:53;100259.09;;;14.62;38.71
50125;BME280;36023;48.670;6.184;2023-02-15T00:53:20;100250.41;;;14.62;38.77
50125;BME280;36023;48.670;6.184;2023-02-15T00:55:46;100249.56;;;14.61;38.63
50125;BME280;36023;48.670;6.184;2023-02-15T00:58:13;100251.31;;;14.61;39.00
50125;BME280;36023;48.670;6.184;2023-02-15T01:00:41;100249.59;;;14.60;38.64
50125;BME280;36023;48.670;6.184;2023-02-15T01:03:08;100256.56;;;14.59;38.70
50125;BME280;36023;48.670;6.184;2023-02-15T01:05:35;100249.63;;;14.58;38.66
50125;BME280;36023;48.670;6.184;2023-02-15T01:08:03;100249.66;;;14.57;38.64
50125;BME280;36023;48.670;6.184;2023-02-15T01:10:29;100240.09;;;14.57;38.57
50125;BME280;36023;48.670;6.184;2023-02-15T01:12:56;100238.38;;;14.56;38.50
50125;BME280;36023;48.670;6.184;2023-02-15T01:15:22;100246.19;;;14.56;38.48
50125;BME280;36023;48.670;6.184;2023-02-15T01:17:48;100241.84;;;14.57;38.48
50125;BME280;36023;48.670;6.184;2023-02-15T01:20:19;100242.72;;;14.56;38.52
50125;BME280;36023;48.670;6.184;2023-02-15T01:22:45;100242.72;;;14.54;38.54
50125;BME280;36023;48.670;6.184;2023-02-15T01:25:12;100246.22;;;14.53;38.41
50125;BME280;36023;48.670;6.184;2023-02-15T01:27:38;100249.69;;;14.54;38.67
50125;BME280;36023;48.670;6.184;2023-02-15T01:30:06;100248.88;;;14.52;38.51
50125;BME280;36023;48.670;6.184;2023-02-15T01:32:32;100245.41;;;14.51;38.30
50125;BME280;36023;48.670;6.184;2023-02-15T01:34:58;100245.41;;;14.51;38.30
50125;BME280;36023;48.670;6.184;2023-02-15T01:37:25;100243.69;;;14.50;38.32
50125;BME280;36023;48.670;6.184;2023-02-15T01:39:53;100241.06;;;14.50;38.48
50125;BME280;36023;48.670;6.184;2023-02-15T01:42:23;100245.44;;;14.49;38.32
50125;BME280;36023;48.670;6.184;2023-02-15T01:50:58;100248.94;;;14.48;38.30
50125;BME280;36023;48.670;6.184;2023-02-15T01:58:32;100242.84;;;14.46;38.38
50125;BME280;36023;48.670;6.184;2023-02-15T02:01:00;100244.59;;;14.47;38.33
50125;BME280;36023;48.670;6.184;2023-02-15T02:06:17;100242.00;;;14.46;38.27
50125;BME280;36023;48.670;6.184;2023-02-15T02:08:44;100246.34;;;14.45;38.21
50125;BME280;36023;48.670;6.184;2023-02-15T02:11:12;100246.34;;;14.45;38.26
50125;BME280;36023;48.670;6.184;2023-02-15T02:13:42;100238.53;;;14.44;38.17
50125;BME280;36023;48.670;6.184;2023-02-15T02:25:11;100236.81;;;14.43;38.09
50125;BME280;36023;48.670;6.184;2023-02-15T02:31:00;100222.97;;;14.41;38.09
50125;BME280;36023;48.670;6.184;2023-02-15T02:36:20;100216.03;;;14.40;38.02
50125;BME280;36023;48.670;6.184;2023-02-15T02:41:26;100209.06;;;14.39;37.93
50125;BME280;36023;48.670;6.184;2023-02-15T02:44:04;100210.81;;;14.38;37.85
50125;BME280;36023;48.670;6.184;2023-02-15T02:46:39;100214.28;;;14.39;37.87
50125;BME280;36023;48.670;6.184;2023-02-15T02:49:08;100211.72;;;14.37;37.82
50125;BME280;36023;48.670;6.184;2023-02-15T02:51:33;100215.22;;;14.36;37.77
50125;BME280;36023;48.670;6.184;2023-02-15T02:54:01;100218.72;;;14.35;37.79
50125;BME280;36023;48.670;6.184;2023-02-15T02:56:35;100208.28;;;14.35;37.80
50125;BME280;36023;48.670;6.184;2023-02-15T02:59:08;100207.44;;;14.35;37.70
50125;BME280;36023;48.670;6.184;2023-02-15T03:01:55;100212.63;;;14.35;37.74
50125;BME280;36023;48.670;6.184;2023-02-15T03:04:33;100206.56;;;14.34;37.70
50125;BME280;36023;48.670;6.184;2023-02-15T03:07:05;100200.50;;;14.34;37.80
50125;BME280;36023;48.670;6.184;2023-02-15T03:09:37;100206.56;;;14.34;37.75
50125;BME280;36023;48.670;6.184;2023-02-15T03:12:09;100199.63;;;14.33;37.77
50125;BME280;36023;48.670;6.184;2023-02-15T03:14:44;100197.03;;;14.32;37.64
50125;BME280;36023;48.670;6.184;2023-02-15T03:17:12;100193.56;;;14.31;37.58
50125;BME280;36023;48.670;6.184;2023-02-15T03:19:39;100192.75;;;14.29;37.61
50125;BME280;36023;48.670;6.184;2023-02-15T03:22:22;100193.59;;;14.30;37.75
50125;BME280;36023;48.670;6.184;2023-02-15T03:24:53;100197.97;;;14.29;37.59
50125;BME280;36023;48.670;6.184;2023-02-15T03:27:33;100191.91;;;14.29;37.56
50125;BME280;36023;48.670;6.184;2023-02-15T03:30:03;100191.03;;;14.28;37.57
50125;BME280;36023;48.670;6.184;2023-02-15T03:32:32;100191.91;;;14.29;37.57
50125;BME280;36023;48.670;6.184;2023-02-15T03:34:59;100190.19;;;14.28;37.48
50125;BME280;36023;48.670;6.184;2023-02-15T03:37:33;100193.66;;;14.27;37.43
50125;BME280;36023;48.670;6.184;2023-02-15T03:40:16;100184.13;;;14.26;37.52
50125;BME280;36023;48.670;6.184;2023-02-15T03:46:08;100192.84;;;14.25;37.53
50125;BME280;36023;48.670;6.184;2023-02-15T03:48:39;100191.09;;;14.23;37.45
50125;BME280;36023;48.670;6.184;2023-02-15T03:51:09;100183.28;;;14.23;37.59
50125;BME280;36023;48.670;6.184;2023-02-15T03:53:57;100184.16;;;14.24;37.51
50125;BME280;36023;48.670;6.184;2023-02-15T03:56:25;100190.25;;;14.23;37.46
50125;BME280;36023;48.670;6.184;2023-02-15T03:58:51;100187.66;;;14.21;37.44
50125;BME280;36023;48.670;6.184;2023-02-15T04:01:52;100185.06;;;14.21;37.44
50125;BME280;36023;48.670;6.184;2023-02-15T04:04:35;100191.13;;;14.22;37.45
50125;BME280;36023;48.670;6.184;2023-02-15T04:07:03;100189.38;;;14.22;37.51
50125;BME280;36023;48.670;6.184;2023-02-15T04:09:30;100194.63;;;14.21;37.47
50125;BME280;36023;48.670;6.184;2023-02-15T04:12:14;100191.16;;;14.20;37.35
50125;BME280;36023;48.670;6.184;2023-02-15T04:14:40;100188.56;;;14.20;37.44
50125;BME280;36023;48.670;6.184;2023-02-15T04:17:24;100185.09;;;14.20;37.34
50125;BME280;36023;48.670;6.184;2023-02-15T04:19:50;100188.59;;;14.19;37.33
50125;BME280;36023;48.670;6.184;2023-02-15T04:22:34;100186.84;;;14.19;37.33
50125;BME280;36023;48.670;6.184;2023-02-15T04:25:19;100191.19;;;14.19;37.31
50125;BME280;36023;48.670;6.184;2023-02-15T04:27:48;100192.09;;;14.18;37.47
50125;BME280;36023;48.670;6.184;2023-02-15T04:30:17;100192.94;;;14.18;37.36
50125;BME280;36023;48.670;6.184;2023-02-15T04:32:45;100194.69;;;14.18;37.40
50125;BME280;36023;48.670;6.184;2023-02-15T04:35:11;100190.34;;;14.18;37.36
50125;BME280;36023;48.670;6.184;2023-02-15T04:37:38;100187.75;;;14.17;37.49
50125;BME280;36023;48.670;6.184;2023-02-15T04:40:06;100192.09;;;14.18;37.14
50125;BME280;36023;48.670;6.184;2023-02-15T04:42:32;100193.84;;;14.17;37.28
50125;BME280;36023;48.670;6.184;2023-02-15T04:44:58;100194.72;;;14.16;37.47
50125;BME280;36023;48.670;6.184;2023-02-15T04:47:24;100192.97;;;14.17;37.41
50125;BME280;36023;48.670;6.184;2023-02-15T04:49:49;100196.44;;;14.16;37.34
50125;BME280;36023;48.670;6.184;2023-02-15T04:52:16;100194.72;;;14.16;37.30
50125;BME280;36023;48.670;6.184;2023-02-15T04:54:45;100187.75;;;14.15;37.29
50125;BME280;36023;48.670;6.184;2023-02-15T04:57:10;100187.75;;;14.15;37.33
50125;BME280;36023;48.670;6.184;2023-02-15T04:59:36;100190.41;;;14.14;37.24
50125;BME280;36023;48.670;6.184;2023-02-15T05:02:02;100184.31;;;14.15;37.31
50125;BME280;36023;48.670;6.184;2023-02-15T05:04:28;100187.78;;;14.14;37.16
50125;BME280;36023;48.670;6.184;2023-02-15T05:06:54;100187.78;;;14.14;37.20
50125;BME280;36023;48.670;6.184;2023-02-15T05:09:22;100180.88;;;14.13;37.27
50125;BME280;36023;48.670;6.184;2023-02-15T05:11:48;100184.31;;;14.15;37.54
50125;BME280;36023;48.670;6.184;2023-02-15T05:14:14;100180.81;;;14.17;37.39
50125;BME280;36023;48.670;6.184;2023-02-15T05:16:39;100182.44;;;14.23;37.45
50125;BME280;36023;48.670;6.184;2023-02-15T05:19:05;100176.19;;;14.32;37.49
50125;BME280;36023;48.670;6.184;2023-02-15T05:21:31;100175.19;;;14.40;37.43
50125;BME280;36023;48.670;6.184;2023-02-15T05:23:57;100168.97;;;14.49;37.48
50125;BME280;36023;48.670;6.184;2023-02-15T05:26:24;100173.16;;;14.58;37.43
50125;BME280;36023;48.670;6.184;2023-02-15T05:29:09;100174.72;;;14.66;37.35
50125;BME280;36023;48.670;6.184;2023-02-15T05:31:36;100172.00;;;14.72;37.17
50125;BME280;36023;48.670;6.184;2023-02-15T05:34:02;100172.75;;;14.79;37.14
50125;BME280;36023;48.670;6.184;2023-02-15T05:36:28;100183.03;;;14.85;37.09
50125;BME280;36023;48.670;6.184;2023-02-15T05:38:54;100182.97;;;14.90;37.04
50125;BME280;36023;48.670;6.184;2023-02-15T05:41:20;100177.66;;;14.94;36.96
50125;BME280;36023;48.670;6.184;2023-02-15T05:43:45;100168.88;;;14.98;37.01
50125;BME280;36023;48.670;6.184;2023-02-15T05:46:12;100168.81;;;15.01;36.76
50125;BME280;36023;48.670;6.184;2023-02-15T05:48:38;100173.06;;;15.05;36.79
50125;BME280;36023;48.670;6.184;2023-02-15T05:51:09;100181.69;;;15.09;36.73
50125;BME280;36023;48.670;6.184;2023-02-15T05:53:37;100188.53;;;15.15;36.71
50125;BME280;36023;48.670;6.184;2023-02-15T05:56:07;100189.34;;;15.17;36.75
50125;BME280;36023;48.670;6.184;2023-02-15T05:58:36;100189.31;;;15.20;36.65
50125;BME280;36023;48.670;6.184;2023-02-15T06:03:33;100187.44;;;15.25;36.57
50125;BME280;36023;48.670;6.184;2023-02-15T06:05:59;100183.94;;;15.27;36.45
50125;BME280;36023;48.670;6.184;2023-02-15T06:08:25;100185.59;;;15.30;36.34
50125;BME280;36023;48.670;6.184;2023-02-15T06:10:52;100190.78;;;15.33;36.28
50125;BME280;36023;48.670;6.184;2023-02-15T06:13:19;100185.44;;;15.38;36.28
50125;BME280;36023;48.670;6.184;2023-02-15T06:15:45;100191.50;;;15.38;36.39
50125;BME280;36023;48.670;6.184;2023-02-15T06:18:11;100189.72;;;15.40;36.44
50125;BME280;36023;48.670;6.184;2023-02-15T06:20:37;100182.69;;;15.44;36.37
50125;BME280;36023;48.670;6.184;2023-02-15T06:23:02;100186.13;;;15.46;36.49
50125;BME280;36023;48.670;6.184;2023-02-15T06:25:28;100186.09;;;15.47;36.43
50125;BME280;36023;48.670;6.184;2023-02-15T06:27:55;100191.28;;;15.49;36.54
50125;BME280;36023;48.670;6.184;2023-02-15T06:30:23;100188.66;;;15.50;36.47
50125;BME280;36023;48.670;6.184;2023-02-15T06:32:49;100184.25;;;15.52;36.59
50125;BME280;36023;48.670;6.184;2023-02-15T06:35:16;100187.66;;;15.54;36.92
50125;BME280;36023;48.670;6.184;2023-02-15T06:37:45;100187.63;;;15.56;36.97
50125;BME280;36023;48.670;6.184;2023-02-15T06:40:12;100191.13;;;15.56;37.12
50125;BME280;36023;48.670;6.184;2023-02-15T06:42:38;100184.19;;;15.54;37.28
50125;BME280;36023;48.670;6.184;2023-02-15T06:45:04;100189.47;;;15.52;37.38
50125;BME280;36023;48.670;6.184;2023-02-15T06:47:30;100188.59;;;15.52;37.65
50125;BME280;36023;48.670;6.184;2023-02-15T06:49:55;100188.66;;;15.50;37.67
50125;BME280;36023;48.670;6.184;2023-02-15T06:52:21;100190.41;;;15.48;37.82
50125;BME280;36023;48.670;6.184;2023-02-15T06:54:48;100186.97;;;15.46;37.99
50125;BME280;36023;48.670;6.184;2023-02-15T06:57:13;100183.56;;;15.44;38.18
50125;BME280;36023;48.670;6.184;2023-02-15T06:59:39;100193.19;;;15.41;38.12
50125;BME280;36023;48.670;6.184;2023-02-15T07:02:05;100192.41;;;15.37;38.12
50125;BME280;36023;48.670;6.184;2023-02-15T07:04:31;100183.81;;;15.32;38.39
50125;BME280;36023;48.670;6.184;2023-02-15T07:06:57;100188.28;;;15.27;38.25
50125;BME280;36023;48.670;6.184;2023-02-15T07:09:23;100189.28;;;15.21;38.51
50125;BME280;36023;48.670;6.184;2023-02-15T07:11:48;100180.66;;;15.18;38.60
50125;BME280;36023;48.670;6.184;2023-02-15T07:14:33;100189.47;;;15.12;38.77
50125;BME280;36023;48.670;6.184;2023-02-15T07:16:58;100189.56;;;15.08;38.60
50125;BME280;36023;48.670;6.184;2023-02-15T07:19:24;100187.06;;;15.03;38.64
50125;BME280;36023;48.670;6.184;2023-02-15T07:21:49;100190.59;;;14.99;38.67
50125;BME280;36023;48.670;6.184;2023-02-15T07:24:15;100183.75;;;14.95;38.84
50125;BME280;36023;48.670;6.184;2023-02-15T07:26:41;100196.81;;;14.92;38.75
50125;BME280;36023;48.670;6.184;2023-02-15T07:29:07;100199.50;;;14.89;38.88
50125;BME280;36023;48.670;6.184;2023-02-15T07:31:33;100198.69;;;14.85;38.91
50125;BME280;36023;48.670;6.184;2023-02-15T07:33:59;100201.38;;;14.82;39.06
50125;BME280;36023;48.670;6.184;2023-02-15T07:36:24;100201.44;;;14.79;39.02
50125;BME280;36023;48.670;6.184;2023-02-15T07:38:50;100194.53;;;14.76;38.89
50125;BME280;36023;48.670;6.184;2023-02-15T07:41:17;100195.44;;;14.74;38.94
50125;BME280;36023;48.670;6.184;2023-02-15T07:43:44;100204.19;;;14.71;39.06
50125;BME280;36023;48.670;6.184;2023-02-15T07:46:12;100202.47;;;14.69;39.05
50125;BME280;36023;48.670;6.184;2023-02-15T07:48:39;100204.28;;;14.67;39.03
50125;BME280;36023;48.670;6.184;2023-02-15T07:51:07;100204.34;;;14.64;39.09
50125;BME280;36023;48.670;6.184;2023-02-15T07:53:33;100188.69;;;14.62;38.84
50125;BME280;36023;48.670;6.184;2023-02-15T07:56:01;100191.38;;;14.59;39.11
50125;BME280;36023;48.670;6.184;2023-02-15T07:58:27;100193.13;;;14.59;38.95
50125;BME280;36023;48.670;6.184;2023-02-15T08:01:12;100187.09;;;14.57;39.03
50125;BME280;36023;48.670;6.184;2023-02-15T08:03:38;100187.13;;;14.54;38.98
50125;BME280;36023;48.670;6.184;2023-02-15T08:06:03;100188.03;;;14.53;38.93
50125;BME280;36023;48.670;6.184;2023-02-15T08:08:29;100189.78;;;14.52;38.86
50125;BME280;36023;48.670;6.184;2023-02-15T08:13:56;100197.69;;;14.47;38.84
50125;BME280;36023;48.670;6.184;2023-02-15T08:16:45;100183.81;;;14.45;39.03
50125;BME280;36023;48.670;6.184;2023-02-15T08:19:45;100179.44;;;14.44;38.98
50125;BME280;36023;48.670;6.184;2023-02-15T08:22:06;100178.63;;;14.42;38.94
50125;BME280;36023;48.670;6.184;2023-02-15T08:24:36;100180.38;;;14.42;38.91
50125;BME280;36023;48.670;6.184;2023-02-15T08:27:03;100184.72;;;14.41;39.06
50125;BME280;36023;48.670;6.184;2023-02-15T08:29:31;100176.06;;;14.39;39.01
50125;BME280;36023;48.670;6.184;2023-02-15T08:32:00;100176.94;;;14.38;39.01
50125;BME280;36023;48.670;6.184;2023-02-15T08:34:29;100179.59;;;14.37;39.00
50125;BME280;36023;48.670;6.184;2023-02-15T08:36:56;100177.00;;;14.35;38.83
50125;BME280;36023;48.670;6.184;2023-02-15T08:39:22;100170.97;;;14.33;38.87
50125;BME280;36023;48.670;6.184;2023-02-15T08:41:48;100169.22;;;14.34;38.98
50125;BME280;36023;48.670;6.184;2023-02-15T08:44:16;100168.38;;;14.33;38.93
50125;BME280;36023;48.670;6.184;2023-02-15T08:46:44;100166.66;;;14.32;39.00
50125;BME280;36023;48.670;6.184;2023-02-15T08:49:12;100175.34;;;14.31;38.99
50125;BME280;36023;48.670;6.184;2023-02-15T08:51:39;100166.69;;;14.29;38.95
50125;BME280;36023;48.670;6.184;2023-02-15T08:54:08;100170.19;;;14.28;38.93
50125;BME280;36023;48.670;6.184;2023-02-15T08:56:37;100159.75;;;14.28;39.09
50125;BME280;36023;48.670;6.184;2023-02-15T08:59:05;100162.41;;;14.27;38.99
50125;BME280;36023;48.670;6.184;2023-02-15T09:01:32;100160.69;;;14.26;38.86
50125;BME280;36023;48.670;6.184;2023-02-15T09:04:00;100169.38;;;14.26;38.91
50125;BME280;36023;48.670;6.184;2023-02-15T09:06:27;100168.50;;;14.26;38.85
50125;BME280;36023;48.670;6.184;2023-02-15T09:08:54;100166.75;;;14.26;39.09
50125;BME280;36023;48.670;6.184;2023-02-15T09:11:32;100159.84;;;14.25;38.79
50125;BME280;36023;48.670;6.184;2023-02-15T09:14:07;100158.13;;;14.24;38.83
50125;BME280;36023;48.670;6.184;2023-02-15T09:16:36;100154.66;;;14.22;38.79
50125;BME280;36023;48.670;6.184;2023-02-15T09:19:02;100165.06;;;14.22;38.90
50125;BME280;36023;48.670;6.184;2023-02-15T09:21:33;100169.44;;;14.21;38.71
50125;BME280;36023;48.670;6.184;2023-02-15T09:24:03;100166.84;;;14.20;38.81
50125;BME280;36023;48.670;6.184;2023-02-15T09:26:32;100161.66;;;14.20;38.67
50125;BME280;36023;48.670;6.184;2023-02-15T09:29:00;100159.94;;;14.19;38.66
50125;BME280;36023;48.670;6.184;2023-02-15T09:31:29;100155.66;;;14.16;38.61
50125;BME280;36023;48.670;6.184;2023-02-15T09:33:56;100166.94;;;14.17;38.64
50125;BME280;36023;48.670;6.184;2023-02-15T09:36:26;100163.47;;;14.16;38.52
50125;BME280;36023;48.670;6.184;2023-02-15T09:55:34;100159.09;;;14.15;38.81
50125;BME280;36023;48.670;6.184;2023-02-15T10:25:43;100137.50;;;14.10;38.44
50125;BME280;36023;48.670;6.184;2023-02-15T10:28:18;100140.97;;;14.11;38.61
50125;BME280;36023;48.670;6.184;2023-02-15T10:30:52;100139.16;;;14.14;38.37
50125;BME280;36023;48.670;6.184;2023-02-15T10:54:16;100117.88;;;14.39;38.06
50125;BME280;36023;48.670;6.184;2023-02-15T10:59:30;100109.25;;;14.35;38.01
50125;BME280;36023;48.670;6.184;2023-02-15T11:02:25;100109.28;;;14.34;38.13
50125;BME280;36023;48.670;6.184;2023-02-15T11:07:33;100098.91;;;14.32;38.18
50125;BME280;36023;48.670;6.184;2023-02-15T11:12:49;100096.31;;;14.31;38.29
50125;BME280;36023;48.670;6.184;2023-02-15T11:15:36;100088.47;;;14.31;38.37
50125;BME280;36023;48.670;6.184;2023-02-15T11:21:07;100081.53;;;14.31;38.32
50125;BME280;36023;48.670;6.184;2023-02-15T11:23:36;100079.81;;;14.30;38.26
50125;BME280;36023;48.670;6.184;2023-02-15T11:26:13;100078.94;;;14.30;38.35
50125;BME280;36023;48.670;6.184;2023-02-15T11:28:47;100072.88;;;14.29;38.42
50125;BME280;36023;48.670;6.184;2023-02-15T11:31:21;100070.28;;;14.29;38.47
50125;BME280;36023;48.670;6.184;2023-02-15T11:34:54;100063.34;;;14.28;38.54
50125;BME280;36023;48.670;6.184;2023-02-15T11:37:15;100059.00;;;14.29;38.47
50125;BME280;36023;48.670;6.184;2023-02-15T11:39:43;100052.03;;;14.29;38.48
50125;BME280;36023;48.670;6.184;2023-02-15T11:42:14;100059.00;;;14.29;38.47
50125;BME280;36023;48.670;6.184;2023-02-15T11:45:04;100056.41;;;14.29;38.67
50125;BME280;36023;48.670;6.184;2023-02-15T11:47:32;100059.00;;;14.29;38.50
50125;BME280;36023;48.670;6.184;2023-02-15T11:49:59;100045.13;;;14.28;38.66
50125;BME280;36023;48.670;6.184;2023-02-15T11:52:25;100044.22;;;14.29;38.73
50125;BME280;36023;48.670;6.184;2023-02-15T11:54:51;100042.50;;;14.28;38.70
50125;BME280;36023;48.670;6.184;2023-02-15T11:57:33;100038.19;;;14.27;38.62
50125;BME280;36023;48.670;6.184;2023-02-15T12:00:15;100032.97;;;14.27;38.69
50125;BME280;36023;48.670;6.184;2023-02-15T12:02:48;100034.69;;;14.28;38.84
50125;BME280;36023;48.670;6.184;2023-02-15T12:05:20;100027.78;;;14.27;38.81
50125;BME280;36023;48.670;6.184;2023-02-15T12:08:23;100027.81;;;14.26;38.81
50125;BME280;36023;48.670;6.184;2023-02-15T12:11:06;100033.03;;;14.26;38.75
50125;BME280;36023;48.670;6.184;2023-02-15T12:14:00;100025.19;;;14.26;38.95
50125;BME280;36023;48.670;6.184;2023-02-15T12:16:28;100024.34;;;14.25;38.94
50125;BME280;36023;48.670;6.184;2023-02-15T12:19:00;100021.75;;;14.25;38.92
50125;BME280;36023;48.670;6.184;2023-02-15T12:21:29;100019.13;;;14.25;39.03
50125;BME280;36023;48.670;6.184;2023-02-15T12:24:00;100015.69;;;14.25;38.97
50125;BME280;36023;48.670;6.184;2023-02-15T12:26:32;100015.63;;;14.26;38.99
50125;BME280;36023;48.670;6.184;2023-02-15T12:29:20;100005.25;;;14.25;39.14
50125;BME280;36023;48.670;6.184;2023-02-15T12:31:51;100010.44;;;14.26;39.14
50125;BME280;36023;48.670;6.184;2023-02-15T12:34:23;100000.91;;;14.25;39.08
50125;BME280;36023;48.670;6.184;2023-02-15T12:36:55;100007.84;;;14.25;39.26
50125;BME280;36023;48.670;6.184;2023-02-15T12:39:55;99995.69;;;14.25;39.23
50125;BME280;36023;48.670;6.184;2023-02-15T12:42:25;99996.59;;;14.24;39.19
50125;BME280;36023;48.670;6.184;2023-02-15T12:45:02;99999.19;;;14.24;39.30
50125;BME280;36023;48.670;6.184;2023-02-15T12:47:31;99993.09;;;14.25;39.30
50125;BME280;36023;48.670;6.184;2023-02-15T12:52:43;99980.91;;;14.26;39.44
50125;BME280;36023;48.670;6.184;2023-02-15T12:55:18;99985.25;;;14.25;39.36
50125;BME280;36023;48.670;6.184;2023-02-15T12:57:46;99980.06;;;14.25;39.47
50125;BME280;36023;48.670;6.184;2023-02-15T13:02:50;99969.63;;;14.25;39.53
50125;BME280;36023;48.670;6.184;2023-02-15T13:07:58;99968.78;;;14.25;39.53
50125;BME280;36023;48.670;6.184;2023-02-15T13:10:29;99959.22;;;14.25;39.49
50125;BME280;36023;48.670;6.184;2023-02-15T13:12:56;99962.72;;;14.24;39.46
50125;BME280;36023;48.670;6.184;2023-02-15T13:15:28;99959.22;;;14.25;39.59
50125;BME280;36023;48.670;6.184;2023-02-15T13:17:57;99964.41;;;14.25;39.53
50125;BME280;36023;48.670;6.184;2023-02-15T13:20:25;99964.41;;;14.25;39.45
50125;BME280;36023;48.670;6.184;2023-02-15T13:23:05;99959.22;;;14.25;39.75
50125;BME280;36023;48.670;6.184;2023-02-15T13:25:44;99952.28;;;14.24;39.69
50125;BME280;36023;48.670;6.184;2023-02-15T13:28:18;99954.00;;;14.25;39.72
50125;BME280;36023;48.670;6.184;2023-02-15T13:30:47;99942.72;;;14.25;39.72
50125;BME280;36023;48.670;6.184;2023-02-15T13:33:19;99942.69;;;14.26;39.81
50125;BME280;36023;48.670;6.184;2023-02-15T13:36:12;99947.03;;;14.26;39.82
50125;BME280;36023;48.670;6.184;2023-02-15T13:41:30;99943.50;;;14.28;39.90
50125;BME280;36023;48.670;6.184;2023-02-15T13:46:56;99944.34;;;14.29;39.94
50125;BME280;36023;48.670;6.184;2023-02-15T13:52:13;99940.00;;;14.29;39.81
50125;BME280;36023;48.670;6.184;2023-02-15T14:02:49;99935.59;;;14.31;39.93
50125;BME280;36023;48.670;6.184;2023-02-15T14:05:29;99932.13;;;14.32;40.00
50125;BME280;36023;48.670;6.184;2023-02-15T14:11:15;99935.59;;;14.31;40.10
50125;BME280;36023;48.670;6.184;2023-02-15T14:22:05;99933.00;;;14.33;40.32
50125;BME280;36023;48.670;6.184;2023-02-15T14:25:23;99940.78;;;14.34;40.25
50125;BME280;36023;48.670;6.184;2023-02-15T14:27:54;99939.03;;;14.35;40.26
50125;BME280;36023;48.670;6.184;2023-02-15T14:30:26;99935.56;;;14.34;40.45
50125;BME280;36023;48.670;6.184;2023-02-15T14:33:28;99944.22;;;14.35;40.46
50125;BME280;36023;48.670;6.184;2023-02-15T14:35:54;99939.88;;;14.35;40.52
50125;BME280;36023;48.670;6.184;2023-02-15T14:38:38;99946.78;;;14.36;40.58
50125;BME280;36023;48.670;6.184;2023-02-15T14:41:16;99944.19;;;14.36;40.46
50125;BME280;36023;48.670;6.184;2023-02-15T14:47:08;99938.97;;;14.36;40.58
50125;BME280;36023;48.670;6.184;2023-02-15T14:49:37;99945.91;;;14.37;40.71
50125;BME280;36023;48.670;6.184;2023-02-15T14:52:08;99945.91;;;14.37;40.57
50125;BME280;36023;48.670;6.184;2023-02-15T14:59:44;99931.13;;;14.38;40.81
50125;BME280;36023;48.670;6.184;2023-02-15T15:02:18;99936.34;;;14.38;40.83
50125;BME280;36023;48.670;6.184;2023-02-15T15:07:34;99933.72;;;14.38;40.81
50125;BME280;36023;48.670;6.184;2023-02-15T15:10:06;99927.63;;;14.39;40.88
50125;BME280;36023;48.670;6.184;2023-02-15T15:12:54;99932.78;;;14.42;40.86
50125;BME280;36023;48.670;6.184;2023-02-15T15:17:55;99918.69;;;14.52;40.86
50125;BME280;36023;48.670;6.184;2023-02-15T15:20:49;99925.47;;;14.59;40.82
50125;BME280;36023;48.670;6.184;2023-02-15T15:25:51;99922.66;;;14.68;40.64
50125;BME280;36023;48.670;6.184;2023-02-15T15:42:13;99936.00;;;14.92;40.30
50125;BME280;36023;48.670;6.184;2023-02-15T15:50:45;99928.81;;;15.01;40.04
50125;BME280;36023;48.670;6.184;2023-02-15T15:53:21;99927.03;;;15.03;40.13
50125;BME280;36023;48.670;6.184;2023-02-15T15:55:49;99926.94;;;15.07;40.15
50125;BME280;36023;48.670;6.184;2023-02-15T15:58:18;99925.16;;;15.09;40.01
50125;BME280;36023;48.670;6.184;2023-02-15T16:00:51;99920.72;;;15.12;39.94
50125;BME280;36023;48.670;6.184;2023-02-15T16:03:26;99922.34;;;15.16;40.25
50125;BME280;36023;48.670;6.184;2023-02-15T16:05:52;99920.53;;;15.20;40.18
50125;BME280;36023;48.670;6.184;2023-02-15T16:08:32;99924.75;;;15.24;40.33
50125;BME280;36023;48.670;6.184;2023-02-15T16:11:00;99923.88;;;15.25;40.27
50125;BME280;36023;48.670;6.184;2023-02-15T16:13:33;99933.34;;;15.29;40.24
50125;BME280;36023;48.670;6.184;2023-02-15T16:15:59;99936.75;;;15.31;40.35
50125;BME280;36023;48.670;6.184;2023-02-15T16:18:26;99935.84;;;15.33;40.28
50125;BME280;36023;48.670;6.184;2023-02-15T16:20:55;99935.84;;;15.33;40.22